AirNav   Bose Proflight Series 2 Wireless Aviation Headset
 
 1451 users online  

7PS6 Allegheny Valley Hospital Heliport
Natrona Heights, Pennsylvania, USA

GOING TO NATRONA HEIGHTS?


FAA INFORMATION EFFECTIVE 07 NOVEMBER 2019

Location

FAA Identifier: 7PS6
Lat/Long: 40-37-08.8800N 079-44-16.2600W
40-37.148000N 079-44.271000W
40.6191333,-79.7378500
(estimated)
Elevation: 965 ft. / 294 m (estimated)
Variation: 08W (1985)
From city: 1 mile E of NATRONA HEIGHTS, PA
Time zone: UTC -5 (UTC -4 during Daylight Saving Time)
Zip code: 15065

Heliport Operations

Heliport use: Private use, MEDICAL USE.
Activation date: 12/1987
Control tower: no
ARTCC: CLEVELAND CENTER
FSS: ALTOONA FLIGHT SERVICE STATION
Attendance: UNATNDD
Segmented circle: no

Heliport Communications

WX AWOS-3PT at BTP (14 nm NW): 121.450 (724-586-6434)
WX AWOS-A at 42PN (16 nm SW): PHONE 412-442-2213
WX ASOS at AGC (18 nm SW): PHONE 412-466-8968

Nearby radio navigation aids

VOR radial/distance  VOR name  Freq  Var
AGCr043/24.7ALLEGHENY VOR/DME110.0009W
EWCr128/24.8ELLWOOD CITY VOR/DME115.8008W
CIPr208/34.1CLARION VOR/DME112.9006W

 
NDB name  Hdg/Dist  Freq  Var  ID
CASTLE137/39.227209WUCP ..- -.-. .--.

Heliport Services

Runway Information

Helipad H1

Dimensions: 20 x 20 ft. / 6 x 6 m
Surface: concrete
Latitude: 40-37.148000N
Longitude: 079-44.271000W
Elevation: 965.0 ft.
Traffic pattern: leftleft

Heliport Ownership and Management from official FAA records

Ownership: Privately-owned
Owner: ALLEGHENY VALLEY HOSPITAL
1301 CARLISLE STREET
NATRONA HEIGHTS, PA 15065
Phone 412-226-7356
Manager: LAWRENCE LEJEUNE
1301 CARLISLE STREET
NATRONA HEIGHTS, PA 15065
Phone (412) 226-7499

Additional Remarks

FOR CD CTC PITTSBURGH APCH AT 412-472-5591

Instrument Procedures

There are no published instrument procedures at 7PS6.

Some nearby airports with instrument procedures:

6P7 - McVille Airport (9 nm NE)
KBTP - Pittsburgh/Butler Regional Airport (14 nm NW)
KAGC - Allegheny County Airport (18 nm SW)
KPJC - Zelienople Municipal Airport (22 nm NW)
KPIT - Pittsburgh International Airport (24 nm W)
 
Loc | Ops | Rwys | IFR | FBO | Links
Com | Nav | Svcs | Stats | Notes
Area around 7PS6 (Allegheny Valley Hospital Heliport)
 
Road maps at: MapQuest Bing Google
 
Aerial photo
No photo
 
Sectional chart

 
Airport distance calculator
Flying to Allegheny Valley Hospital Heliport? Find the distance to fly.

From to 7PS6

Sunrise and sunset
Times for 12-Nov-2019
 Local
(UTC-5)
 Zulu
(UTC)
Morning civil twilight06:3411:34
Sunrise07:0312:03
Sunset17:0322:03
Evening civil twilight17:3222:32

Current date and time
Zulu (UTC)  12-Nov-2019 16:32:59
Local (UTC-5)  12-Nov-2019 11:32:59
 
METAR
KBTP 
13nm NW 
121556Z AUTO 33009KT 9SM -SN BKN021 BKN027 OVC034 M01/M05 A3009 RMK AO2 UPB50E52SNE50B52 SLP207 P0000 T10061050 FZRANO
KAGC 
18nm SW 
121617Z 29009G26KT 1/2SM R28/2400VP6000FT -SN FZFG BKN010 OVC015 M02/M04 A3009 RMK AO2 PK WND 30026/1609 P0001 T10221039
KPJC 
22nm NW 
121615Z AUTO 27003KT 7SM -SN SCT007 BKN016 OVC080 M01/M03 A3011 RMK AO2
KP53 
25nm S 
121556Z AUTO 26006KT M10/M12 A3031 RMK AO1 SLP276 P0006 T11001122
KPIT 
25nm W 
121621Z 29015G22KT 6SM -SN BR FEW008 BKN013 OVC022 M02/M05 A3010 RMK AO2 P0000 T10221050
KLBE 
26nm SE 
121550Z 30009KT 4SM -SN BKN013 OVC040 M02/M03 A3007
TAF
KAGC 
18nm SW 
121342Z 1214/1312 31010G18KT 1 1/2SM -SN BR BKN015 FM121800 34012G20KT 3SM -SN BKN015 FM130100 33008KT P6SM BKN035
NOTAMs
Click for the latest NOTAMs
NOTAMs are issued by the DoD/FAA and will open in a separate window not controlled by AirNav.

 

 
 

Would you like to see your business listed on this page?

 If your business provides an interesting product or service to pilots, flight crews, aircraft, or users of the Allegheny Valley Hospital Heliport, you should consider listing it here.  To start the listing process, click on the button below
 
Add a business
 

Other Pages about Allegheny Valley Hospital Heliport

Update a link
 
Copyright © AirNav, LLC. All rights reserved. Privacy Policy  Contact